sensor_id;sensor_type;location;lat;lon;timestamp;pressure;altitude;pressure_sealevel;temperature;humidity
55442;BME280;41313;58.740;50.174;2022-09-14T00:04:34;100670.84;;;8.57;65.99
55442;BME280;41313;58.740;50.174;2022-09-14T00:09:37;100662.28;;;8.52;65.22
55442;BME280;41313;58.740;50.174;2022-09-14T00:14:38;100663.66;;;8.37;65.83
55442;BME280;41313;58.740;50.174;2022-09-14T00:19:41;100669.25;;;8.26;66.13
55442;BME280;41313;58.740;50.174;2022-09-14T00:24:42;100663.34;;;8.21;65.46
55442;BME280;41313;58.740;50.174;2022-09-14T00:29:46;100658.53;;;8.09;66.11
55442;BME280;41313;58.740;50.174;2022-09-14T00:34:49;100653.59;;;7.99;66.02
55442;BME280;41313;58.740;50.174;2022-09-14T00:39:51;100648.69;;;7.90;66.32
55442;BME280;41313;58.740;50.174;2022-09-14T00:44:58;100654.31;;;7.80;66.21
55442;BME280;41313;58.740;50.174;2022-09-14T00:50:02;100653.72;;;7.71;66.14
55442;BME280;41313;58.740;50.174;2022-09-14T00:55:08;100657.97;;;7.74;65.43
55442;BME280;41313;58.740;50.174;2022-09-14T01:00:13;100653.06;;;7.65;65.09
55442;BME280;41313;58.740;50.174;2022-09-14T01:05:16;100650.66;;;7.59;65.88
55442;BME280;41313;58.740;50.174;2022-09-14T01:15:46;100642.81;;;7.59;65.98
55442;BME280;41313;58.740;50.174;2022-09-14T01:20:57;100637.66;;;7.56;66.17
55442;BME280;41313;58.740;50.174;2022-09-14T01:26:27;100632.72;;;7.46;66.19
55442;BME280;41313;58.740;50.174;2022-09-14T01:31:48;100635.34;;;7.46;65.83
55442;BME280;41313;58.740;50.174;2022-09-14T01:36:58;100639.13;;;7.38;66.43
55442;BME280;41313;58.740;50.174;2022-09-14T01:42:02;100631.31;;;7.36;66.39
55442;BME280;41313;58.740;50.174;2022-09-14T01:47:26;100643.53;;;7.36;66.72
55442;BME280;41313;58.740;50.174;2022-09-14T01:52:41;100635.34;;;7.20;66.33
55442;BME280;41313;58.740;50.174;2022-09-14T01:57:49;100645.84;;;7.17;65.82
55442;BME280;41313;58.740;50.174;2022-09-14T02:02:59;100631.44;;;7.05;67.19
55442;BME280;41313;58.740;50.174;2022-09-14T02:08:02;100625.72;;;6.92;67.18
55442;BME280;41313;58.740;50.174;2022-09-14T02:13:05;100632.59;;;6.96;66.94
55442;BME280;41313;58.740;50.174;2022-09-14T02:18:07;100630.75;;;6.98;66.00
55442;BME280;41313;58.740;50.174;2022-09-14T02:23:09;100635.84;;;7.31;65.21
55442;BME280;41313;58.740;50.174;2022-09-14T02:28:11;100630.44;;;7.09;65.95
55442;BME280;41313;58.740;50.174;2022-09-14T02:38:39;100639.25;;;7.33;64.67
55442;BME280;41313;58.740;50.174;2022-09-14T02:43:54;100628.47;;;7.16;65.49
55442;BME280;41313;58.740;50.174;2022-09-14T02:49:17;100635.03;;;7.29;66.34
55442;BME280;41313;58.740;50.174;2022-09-14T02:54:28;100631.97;;;7.43;64.94
55442;BME280;41313;58.740;50.174;2022-09-14T02:59:32;100631.97;;;7.43;66.13
55442;BME280;41313;58.740;50.174;2022-09-14T03:04:35;100628.34;;;7.73;64.88
55442;BME280;41313;58.740;50.174;2022-09-14T03:09:36;100626.94;;;7.63;66.01
55442;BME280;41313;58.740;50.174;2022-09-14T03:14:38;100627.78;;;7.64;66.46
55442;BME280;41313;58.740;50.174;2022-09-14T03:19:40;100620.50;;;7.73;65.18
55442;BME280;41313;58.740;50.174;2022-09-14T03:24:42;100617.50;;;7.84;65.36
55442;BME280;41313;58.740;50.174;2022-09-14T03:29:43;100614.41;;;7.98;65.09
55442;BME280;41313;58.740;50.174;2022-09-14T03:34:45;100610.34;;;8.14;64.87
55442;BME280;41313;58.740;50.174;2022-09-14T03:39:47;100607.94;;;8.33;65.12
55442;BME280;41313;58.740;50.174;2022-09-14T03:44:48;100606.97;;;8.36;65.44
55442;BME280;41313;58.740;50.174;2022-09-14T03:49:50;100605.50;;;8.52;66.78
55442;BME280;41313;58.740;50.174;2022-09-14T03:54:52;100601.34;;;8.47;67.77
55442;BME280;41313;58.740;50.174;2022-09-14T03:59:54;100601.44;;;8.67;67.66
55442;BME280;41313;58.740;50.174;2022-09-14T04:04:56;100599.16;;;8.81;67.36
55442;BME280;41313;58.740;50.174;2022-09-14T04:09:58;100589.72;;;8.99;67.15
55442;BME280;41313;58.740;50.174;2022-09-14T04:14:59;100596.53;;;9.25;67.26
55442;BME280;41313;58.740;50.174;2022-09-14T04:20:02;100591.44;;;9.43;66.91
55442;BME280;41313;58.740;50.174;2022-09-14T04:25:05;100594.31;;;9.79;65.91
55442;BME280;41313;58.740;50.174;2022-09-14T04:30:07;100586.88;;;9.89;66.26
55442;BME280;41313;58.740;50.174;2022-09-14T04:35:09;100583.84;;;9.98;66.14
55442;BME280;41313;58.740;50.174;2022-09-14T04:40:11;100584.81;;;10.16;65.91
55442;BME280;41313;58.740;50.174;2022-09-14T04:45:14;100578.41;;;10.42;65.77
55442;BME280;41313;58.740;50.174;2022-09-14T04:50:16;100576.06;;;10.55;65.52
55442;BME280;41313;58.740;50.174;2022-09-14T04:55:17;100579.97;;;10.84;65.12
55442;BME280;41313;58.740;50.174;2022-09-14T05:00:19;100578.50;;;11.14;65.00
55442;BME280;41313;58.740;50.174;2022-09-14T05:05:21;100571.56;;;11.31;64.85
55442;BME280;41313;58.740;50.174;2022-09-14T05:10:23;100563.84;;;11.45;64.91
55442;BME280;41313;58.740;50.174;2022-09-14T05:15:25;100562.50;;;11.89;64.64
55442;BME280;41313;58.740;50.174;2022-09-14T05:20:27;100562.72;;;12.01;64.32
55442;BME280;41313;58.740;50.174;2022-09-14T05:25:28;100555.63;;;12.19;63.87
55442;BME280;41313;58.740;50.174;2022-09-14T05:30:31;100555.50;;;12.54;63.15
55442;BME280;41313;58.740;50.174;2022-09-14T05:35:32;100563.41;;;12.70;62.69
55442;BME280;41313;58.740;50.174;2022-09-14T05:40:34;100559.59;;;12.91;62.00
55442;BME280;41313;58.740;50.174;2022-09-14T05:45:36;100566.81;;;13.04;61.37
55442;BME280;41313;58.740;50.174;2022-09-14T05:50:37;100553.56;;;13.35;60.23
55442;BME280;41313;58.740;50.174;2022-09-14T05:55:39;100557.44;;;13.60;58.87
55442;BME280;41313;58.740;50.174;2022-09-14T06:00:41;100549.25;;;13.93;58.75
55442;BME280;41313;58.740;50.174;2022-09-14T06:05:43;100546.06;;;14.17;58.07
55442;BME280;41313;58.740;50.174;2022-09-14T06:10:44;100554.06;;;14.29;57.25
55442;BME280;41313;58.740;50.174;2022-09-14T06:15:46;100542.94;;;14.53;56.10
55442;BME280;41313;58.740;50.174;2022-09-14T06:20:51;100548.59;;;14.61;54.97
55442;BME280;41313;58.740;50.174;2022-09-14T06:25:54;100541.09;;;14.68;54.17
55442;BME280;41313;58.740;50.174;2022-09-14T06:30:56;100534.03;;;14.68;53.47
55442;BME280;41313;58.740;50.174;2022-09-14T06:36:03;100537.19;;;14.88;53.15
55442;BME280;41313;58.740;50.174;2022-09-14T06:41:07;100535.97;;;15.06;52.12
55442;BME280;41313;58.740;50.174;2022-09-14T06:46:21;100534.13;;;15.21;51.69
55442;BME280;41313;58.740;50.174;2022-09-14T06:51:27;100524.19;;;15.37;50.31
55442;BME280;41313;58.740;50.174;2022-09-14T06:56:34;100526.56;;;15.67;49.54
55442;BME280;41313;58.740;50.174;2022-09-14T07:01:37;100520.25;;;15.83;49.52
55442;BME280;41313;58.740;50.174;2022-09-14T07:06:44;100525.09;;;16.02;48.29
55442;BME280;41313;58.740;50.174;2022-09-14T07:11:47;100520.28;;;16.32;47.96
55442;BME280;41313;58.740;50.174;2022-09-14T07:16:49;100520.06;;;16.48;45.99
55442;BME280;41313;58.740;50.174;2022-09-14T07:21:51;100525.50;;;16.34;44.94
55442;BME280;41313;58.740;50.174;2022-09-14T07:26:54;100519.31;;;16.46;44.42
55442;BME280;41313;58.740;50.174;2022-09-14T07:31:56;100516.25;;;16.76;44.86
55442;BME280;41313;58.740;50.174;2022-09-14T07:36:57;100511.75;;;16.90;45.20
55442;BME280;41313;58.740;50.174;2022-09-14T07:41:59;100512.59;;;16.90;45.63
55442;BME280;41313;58.740;50.174;2022-09-14T07:47:01;100509.09;;;16.53;43.79
55442;BME280;41313;58.740;50.174;2022-09-14T07:52:03;100507.63;;;16.49;44.46
55442;BME280;41313;58.740;50.174;2022-09-14T07:57:07;100499.31;;;16.66;44.03
55442;BME280;41313;58.740;50.174;2022-09-14T08:02:10;100497.91;;;16.97;43.99
55442;BME280;41313;58.740;50.174;2022-09-14T08:07:13;100496.09;;;16.98;43.46
55442;BME280;41313;58.740;50.174;2022-09-14T08:12:14;100492.75;;;17.07;43.82
55442;BME280;41313;58.740;50.174;2022-09-14T08:17:16;100492.19;;;17.15;43.06
55442;BME280;41313;58.740;50.174;2022-09-14T08:22:17;100486.72;;;17.40;43.07
55442;BME280;41313;58.740;50.174;2022-09-14T08:27:19;100479.66;;;17.28;42.78
55442;BME280;41313;58.740;50.174;2022-09-14T08:32:20;100464.97;;;17.35;43.68
55442;BME280;41313;58.740;50.174;2022-09-14T08:37:21;100452.66;;;17.57;42.45
55442;BME280;41313;58.740;50.174;2022-09-14T08:42:23;100447.41;;;17.79;42.51
55442;BME280;41313;58.740;50.174;2022-09-14T08:47:31;100444.97;;;17.87;42.16
55442;BME280;41313;58.740;50.174;2022-09-14T08:52:47;100438.94;;;17.96;43.12
55442;BME280;41313;58.740;50.174;2022-09-14T08:58:03;100434.59;;;17.95;42.38
55442;BME280;41313;58.740;50.174;2022-09-14T09:03:28;100429.53;;;17.92;42.53
55442;BME280;41313;58.740;50.174;2022-09-14T09:08:35;100423.22;;;17.93;43.14
55442;BME280;41313;58.740;50.174;2022-09-14T09:13:40;100418.28;;;18.00;43.53
55442;BME280;41313;58.740;50.174;2022-09-14T09:18:57;100421.28;;;17.95;44.09
55442;BME280;41313;58.740;50.174;2022-09-14T09:24:41;100417.38;;;18.22;44.20
55442;BME280;41313;58.740;50.174;2022-09-14T09:29:41;100417.47;;;18.32;44.00
55442;BME280;41313;58.740;50.174;2022-09-14T09:34:43;100415.88;;;18.40;43.43
55442;BME280;41313;58.740;50.174;2022-09-14T09:40:13;100421.53;;;18.47;44.04
55442;BME280;41313;58.740;50.174;2022-09-14T09:45:15;100422.66;;;18.44;43.41
55442;BME280;41313;58.740;50.174;2022-09-14T09:55:20;100430.75;;;18.43;43.57
55442;BME280;41313;58.740;50.174;2022-09-14T10:00:25;100424.13;;;18.37;44.04
55442;BME280;41313;58.740;50.174;2022-09-14T10:05:28;100427.03;;;18.34;44.26
55442;BME280;41313;58.740;50.174;2022-09-14T10:15:40;100416.94;;;18.49;44.16
55442;BME280;41313;58.740;50.174;2022-09-14T10:36:30;100414.47;;;18.36;44.77
55442;BME280;41313;58.740;50.174;2022-09-14T10:41:45;100419.28;;;18.42;45.38
55442;BME280;41313;58.740;50.174;2022-09-14T11:09:21;100399.59;;;18.34;46.24
55442;BME280;41313;58.740;50.174;2022-09-14T11:24:55;100416.47;;;17.78;47.27
55442;BME280;41313;58.740;50.174;2022-09-14T11:30:17;100417.41;;;17.77;47.51
55442;BME280;41313;58.740;50.174;2022-09-14T11:35:24;100413.78;;;17.56;47.64
55442;BME280;41313;58.740;50.174;2022-09-14T11:40:58;100411.69;;;17.37;47.91
55442;BME280;41313;58.740;50.174;2022-09-14T11:46:11;100421.22;;;17.17;49.00
55442;BME280;41313;58.740;50.174;2022-09-14T11:51:19;100419.16;;;17.09;50.11
55442;BME280;41313;58.740;50.174;2022-09-14T11:56:29;100413.94;;;16.96;51.00
55442;BME280;41313;58.740;50.174;2022-09-14T12:01:38;100414.84;;;16.84;52.19
55442;BME280;41313;58.740;50.174;2022-09-14T12:06:43;100392.66;;;16.61;53.98
55442;BME280;41313;58.740;50.174;2022-09-14T12:11:58;100395.91;;;16.64;53.82
55442;BME280;41313;58.740;50.174;2022-09-14T12:17:13;100393.91;;;16.44;54.69
55442;BME280;41313;58.740;50.174;2022-09-14T12:27:35;100382.84;;;16.26;56.20
55442;BME280;41313;58.740;50.174;2022-09-14T12:32:42;100374.41;;;16.08;57.19
55442;BME280;41313;58.740;50.174;2022-09-14T12:37:44;100369.84;;;16.10;57.98
55442;BME280;41313;58.740;50.174;2022-09-14T12:42:46;100364.41;;;15.88;58.66
55442;BME280;41313;58.740;50.174;2022-09-14T12:47:50;100358.44;;;15.97;58.81
55442;BME280;41313;58.740;50.174;2022-09-14T12:53:27;100350.69;;;16.07;59.08
55442;BME280;41313;58.740;50.174;2022-09-14T12:58:46;100346.41;;;15.80;60.40
55442;BME280;41313;58.740;50.174;2022-09-14T13:03:52;100335.94;;;15.66;60.78
55442;BME280;41313;58.740;50.174;2022-09-14T13:08:57;100327.13;;;15.65;61.69
55442;BME280;41313;58.740;50.174;2022-09-14T13:13:59;100318.03;;;15.57;62.09
55442;BME280;41313;58.740;50.174;2022-09-14T13:19:05;100306.84;;;15.40;62.50
55442;BME280;41313;58.740;50.174;2022-09-14T13:24:29;100301.75;;;15.37;62.52
55442;BME280;41313;58.740;50.174;2022-09-14T13:29:31;100297.72;;;15.32;62.75
55442;BME280;41313;58.740;50.174;2022-09-14T13:34:34;100298.16;;;15.25;63.17
55442;BME280;41313;58.740;50.174;2022-09-14T13:39:39;100286.22;;;15.20;63.33
55442;BME280;41313;58.740;50.174;2022-09-14T13:44:46;100291.41;;;15.21;63.48
55442;BME280;41313;58.740;50.174;2022-09-14T13:49:51;100287.59;;;15.13;64.34
55442;BME280;41313;58.740;50.174;2022-09-14T14:05:25;100282.72;;;15.19;64.44
55442;BME280;41313;58.740;50.174;2022-09-14T14:10:35;100277.84;;;15.13;64.36
55442;BME280;41313;58.740;50.174;2022-09-14T14:15:42;100272.69;;;15.12;64.82
55442;BME280;41313;58.740;50.174;2022-09-14T14:20:45;100268.34;;;14.98;64.95
55442;BME280;41313;58.740;50.174;2022-09-14T14:25:53;100255.13;;;14.98;65.40
55442;BME280;41313;58.740;50.174;2022-09-14T14:31:17;100256.16;;;14.95;65.32
55442;BME280;41313;58.740;50.174;2022-09-14T14:36:21;100256.16;;;14.95;65.19
55442;BME280;41313;58.740;50.174;2022-09-14T14:41:24;100234.69;;;14.87;65.74
55442;BME280;41313;58.740;50.174;2022-09-14T14:46:26;100221.56;;;14.86;65.87
55442;BME280;41313;58.740;50.174;2022-09-14T14:51:29;100217.16;;;14.73;65.97
55442;BME280;41313;58.740;50.174;2022-09-14T14:56:30;100211.44;;;14.67;66.64
55442;BME280;41313;58.740;50.174;2022-09-14T15:01:32;100205.63;;;14.62;66.28
55442;BME280;41313;58.740;50.174;2022-09-14T15:06:34;100212.91;;;14.58;67.05
55442;BME280;41313;58.740;50.174;2022-09-14T15:11:38;100203.59;;;14.65;66.37
55442;BME280;41313;58.740;50.174;2022-09-14T15:16:43;100214.19;;;14.52;67.39
55442;BME280;41313;58.740;50.174;2022-09-14T15:21:45;100208.47;;;14.58;66.91
55442;BME280;41313;58.740;50.174;2022-09-14T15:26:47;100214.38;;;14.62;66.44
55442;BME280;41313;58.740;50.174;2022-09-14T15:31:49;100205.59;;;14.49;67.35
55442;BME280;41313;58.740;50.174;2022-09-14T15:36:51;100207.56;;;14.45;67.26
55442;BME280;41313;58.740;50.174;2022-09-14T15:41:54;100216.25;;;14.47;67.24
55442;BME280;41313;58.740;50.174;2022-09-14T15:46:56;100206.53;;;14.48;66.86
55442;BME280;41313;58.740;50.174;2022-09-14T15:51:58;100206.25;;;14.52;66.84
55442;BME280;41313;58.740;50.174;2022-09-14T15:57:00;100190.03;;;14.57;66.72
55442;BME280;41313;58.740;50.174;2022-09-14T16:02:03;100193.66;;;14.56;66.93
55442;BME280;41313;58.740;50.174;2022-09-14T16:07:07;100191.97;;;14.55;66.88
55442;BME280;41313;58.740;50.174;2022-09-14T16:12:13;100180.50;;;14.42;67.45
55442;BME280;41313;58.740;50.174;2022-09-14T16:17:15;100181.66;;;14.38;67.12
55442;BME280;41313;58.740;50.174;2022-09-14T16:22:18;100180.81;;;14.50;66.88
55442;BME280;41313;58.740;50.174;2022-09-14T16:27:21;100166.34;;;14.43;67.27
55442;BME280;41313;58.740;50.174;2022-09-14T16:32:24;100158.31;;;14.31;67.19
55442;BME280;41313;58.740;50.174;2022-09-14T16:37:26;100143.28;;;14.32;67.42
55442;BME280;41313;58.740;50.174;2022-09-14T16:42:28;100130.69;;;14.23;67.58
55442;BME280;41313;58.740;50.174;2022-09-14T16:47:29;100136.50;;;14.15;67.41
55442;BME280;41313;58.740;50.174;2022-09-14T16:52:32;100128.06;;;14.10;67.78
55442;BME280;41313;58.740;50.174;2022-09-14T16:57:34;100138.94;;;14.18;67.70
55442;BME280;41313;58.740;50.174;2022-09-14T17:02:35;100137.38;;;14.28;67.08
55442;BME280;41313;58.740;50.174;2022-09-14T17:07:37;100119.59;;;14.18;67.76
55442;BME280;41313;58.740;50.174;2022-09-14T17:12:39;100120.22;;;14.21;67.43
55442;BME280;41313;58.740;50.174;2022-09-14T17:17:40;100103.44;;;14.22;67.34
55442;BME280;41313;58.740;50.174;2022-09-14T17:22:42;100099.06;;;14.21;67.16
55442;BME280;41313;58.740;50.174;2022-09-14T17:27:44;100089.97;;;14.12;67.58
55442;BME280;41313;58.740;50.174;2022-09-14T17:32:45;100076.78;;;14.00;67.47
55442;BME280;41313;58.740;50.174;2022-09-14T17:37:47;100065.88;;;13.91;67.61
55442;BME280;41313;58.740;50.174;2022-09-14T17:42:49;100064.13;;;13.92;68.33
55442;BME280;41313;58.740;50.174;2022-09-14T17:47:50;100059.47;;;13.96;68.22
55442;BME280;41313;58.740;50.174;2022-09-14T17:52:52;100055.31;;;13.91;68.07
55442;BME280;41313;58.740;50.174;2022-09-14T17:57:54;100050.56;;;13.97;67.81
55442;BME280;41313;58.740;50.174;2022-09-14T18:02:55;100042.66;;;13.84;68.23
55442;BME280;41313;58.740;50.174;2022-09-14T18:07:57;100033.75;;;13.85;67.95
55442;BME280;41313;58.740;50.174;2022-09-14T18:12:59;100031.25;;;13.83;67.96
55442;BME280;41313;58.740;50.174;2022-09-14T18:18:01;100022.47;;;13.96;67.47
55442;BME280;41313;58.740;50.174;2022-09-14T18:23:03;100017.91;;;13.85;67.94
55442;BME280;41313;58.740;50.174;2022-09-14T18:28:05;99993.72;;;13.91;67.43
55442;BME280;41313;58.740;50.174;2022-09-14T18:33:06;99993.28;;;14.10;66.95
55442;BME280;41313;58.740;50.174;2022-09-14T18:38:10;99997.19;;;14.17;66.09
55442;BME280;41313;58.740;50.174;2022-09-14T18:43:12;99993.34;;;14.21;65.75
55442;BME280;41313;58.740;50.174;2022-09-14T18:48:17;99987.84;;;14.24;65.22
55442;BME280;41313;58.740;50.174;2022-09-14T18:53:18;99983.41;;;14.38;65.33
55442;BME280;41313;58.740;50.174;2022-09-14T18:58:20;99977.94;;;14.28;65.38
55442;BME280;41313;58.740;50.174;2022-09-14T19:03:21;99978.13;;;14.38;64.85
55442;BME280;41313;58.740;50.174;2022-09-14T19:08:33;99960.97;;;14.43;64.27
55442;BME280;41313;58.740;50.174;2022-09-14T19:13:37;99957.38;;;14.44;64.61
55442;BME280;41313;58.740;50.174;2022-09-14T19:18:40;99962.03;;;14.41;64.39
55442;BME280;41313;58.740;50.174;2022-09-14T19:23:43;99962.44;;;14.47;64.38
55442;BME280;41313;58.740;50.174;2022-09-14T19:28:44;99961.91;;;14.55;63.75
55442;BME280;41313;58.740;50.174;2022-09-14T19:33:47;99947.78;;;14.67;63.63
55442;BME280;41313;58.740;50.174;2022-09-14T19:38:51;99930.19;;;14.55;63.70
55442;BME280;41313;58.740;50.174;2022-09-14T19:44:02;99924.19;;;14.40;63.86
55442;BME280;41313;58.740;50.174;2022-09-14T19:49:16;99924.66;;;14.21;64.11
55442;BME280;41313;58.740;50.174;2022-09-14T19:54:19;99914.59;;;14.26;64.29
55442;BME280;41313;58.740;50.174;2022-09-14T19:59:21;99923.88;;;14.32;63.74
55442;BME280;41313;58.740;50.174;2022-09-14T20:04:32;99925.03;;;14.41;64.03
55442;BME280;41313;58.740;50.174;2022-09-14T20:09:40;99937.66;;;14.48;63.83
55442;BME280;41313;58.740;50.174;2022-09-14T20:14:42;99919.72;;;14.41;63.61
55442;BME280;41313;58.740;50.174;2022-09-14T20:19:44;99913.38;;;14.43;63.30
55442;BME280;41313;58.740;50.174;2022-09-14T20:24:46;99930.75;;;14.34;63.88
55442;BME280;41313;58.740;50.174;2022-09-14T20:29:48;99923.34;;;14.40;63.74
55442;BME280;41313;58.740;50.174;2022-09-14T20:34:50;99928.50;;;14.41;63.47
55442;BME280;41313;58.740;50.174;2022-09-14T20:39:52;99922.59;;;14.38;63.75
55442;BME280;41313;58.740;50.174;2022-09-14T20:44:54;99932.19;;;14.14;64.49
55442;BME280;41313;58.740;50.174;2022-09-14T20:49:55;99924.28;;;14.02;64.88
55442;BME280;41313;58.740;50.174;2022-09-14T20:54:57;99924.78;;;14.20;64.21
55442;BME280;41313;58.740;50.174;2022-09-14T20:59:58;99913.13;;;14.22;64.11
55442;BME280;41313;58.740;50.174;2022-09-14T21:05:00;99911.22;;;14.24;63.94
55442;BME280;41313;58.740;50.174;2022-09-14T21:10:02;99896.53;;;14.20;63.87
55442;BME280;41313;58.740;50.174;2022-09-14T21:15:04;99896.09;;;14.26;63.67
55442;BME280;41313;58.740;50.174;2022-09-14T21:20:06;99896.25;;;14.36;63.38
55442;BME280;41313;58.740;50.174;2022-09-14T21:25:09;99883.63;;;14.28;63.59
55442;BME280;41313;58.740;50.174;2022-09-14T21:30:11;99872.81;;;14.31;63.69
55442;BME280;41313;58.740;50.174;2022-09-14T21:35:14;99877.16;;;14.32;63.96
55442;BME280;41313;58.740;50.174;2022-09-14T21:40:17;99859.84;;;14.28;63.69
55442;BME280;41313;58.740;50.174;2022-09-14T21:45:21;99857.88;;;14.19;64.08
55442;BME280;41313;58.740;50.174;2022-09-14T21:50:22;99843.06;;;14.17;63.72
55442;BME280;41313;58.740;50.174;2022-09-14T21:55:24;99841.13;;;14.19;63.66
55442;BME280;41313;58.740;50.174;2022-09-14T22:00:26;99835.47;;;14.12;63.99
55442;BME280;41313;58.740;50.174;2022-09-14T22:05:29;99840.31;;;14.18;64.08
55442;BME280;41313;58.740;50.174;2022-09-14T22:10:33;99841.59;;;14.12;63.73
55442;BME280;41313;58.740;50.174;2022-09-14T22:15:36;99841.94;;;14.08;63.40
55442;BME280;41313;58.740;50.174;2022-09-14T22:20:38;99839.75;;;14.02;63.97
55442;BME280;41313;58.740;50.174;2022-09-14T22:25:40;99829.69;;;14.07;63.44
55442;BME280;41313;58.740;50.174;2022-09-14T22:30:53;99834.56;;;14.00;63.80
55442;BME280;41313;58.740;50.174;2022-09-14T22:35:57;99836.75;;;14.06;63.53
55442;BME280;41313;58.740;50.174;2022-09-14T22:41:01;99832.53;;;14.04;63.79
55442;BME280;41313;58.740;50.174;2022-09-14T22:46:04;99843.53;;;14.10;63.31
55442;BME280;41313;58.740;50.174;2022-09-14T22:51:12;99836.22;;;14.14;63.60
55442;BME280;41313;58.740;50.174;2022-09-14T22:56:17;99831.88;;;14.13;63.28
55442;BME280;41313;58.740;50.174;2022-09-14T23:01:24;99851.31;;;14.12;63.21
55442;BME280;41313;58.740;50.174;2022-09-14T23:06:28;99859.25;;;14.12;63.37
55442;BME280;41313;58.740;50.174;2022-09-14T23:11:30;99866.94;;;14.15;63.03
55442;BME280;41313;58.740;50.174;2022-09-14T23:16:32;99866.69;;;14.07;63.33
55442;BME280;41313;58.740;50.174;2022-09-14T23:21:34;99875.03;;;14.01;63.55
55442;BME280;41313;58.740;50.174;2022-09-14T23:26:36;99890.78;;;14.02;63.73
55442;BME280;41313;58.740;50.174;2022-09-14T23:31:38;99871.06;;;13.82;63.86
55442;BME280;41313;58.740;50.174;2022-09-14T23:36:40;99874.63;;;13.94;63.78
55442;BME280;41313;58.740;50.174;2022-09-14T23:41:41;99855.38;;;14.05;63.56
55442;BME280;41313;58.740;50.174;2022-09-14T23:46:43;99856.16;;;14.18;63.45
55442;BME280;41313;58.740;50.174;2022-09-14T23:51:45;99856.59;;;14.12;63.22
55442;BME280;41313;58.740;50.174;2022-09-14T23:56:47;99853.88;;;14.13;63.82
